sensor_id;sensor_type;location;lat;lon;timestamp;P1;durP1;ratioP1;P2;durP2;ratioP2
14030;SDS011;7090;49.436;8.490;2023-03-14T00:00:10;6.60;;;6.30;;
14030;SDS011;7090;49.436;8.490;2023-03-14T00:02:37;6.33;;;6.13;;
14030;SDS011;7090;49.436;8.490;2023-03-14T00:05:03;6.77;;;6.47;;
14030;SDS011;7090;49.436;8.490;2023-03-14T00:07:35;6.43;;;6.20;;
14030;SDS011;7090;49.436;8.490;2023-03-14T00:10:19;6.53;;;6.33;;
14030;SDS011;7090;49.436;8.490;2023-03-14T00:12:45;6.67;;;6.37;;
14030;SDS011;7090;49.436;8.490;2023-03-14T00:15:11;6.83;;;6.53;;
14030;SDS011;7090;49.436;8.490;2023-03-14T00:17:37;5.97;;;5.77;;
14030;SDS011;7090;49.436;8.490;2023-03-14T00:20:04;7.03;;;6.43;;
14030;SDS011;7090;49.436;8.490;2023-03-14T00:22:36;6.03;;;5.83;;
14030;SDS011;7090;49.436;8.490;2023-03-14T00:25:03;6.00;;;5.80;;
14030;SDS011;7090;49.436;8.490;2023-03-14T00:27:29;5.83;;;5.63;;
14030;SDS011;7090;49.436;8.490;2023-03-14T00:29:55;6.33;;;6.03;;
14030;SDS011;7090;49.436;8.490;2023-03-14T00:32:21;6.30;;;6.00;;
14030;SDS011;7090;49.436;8.490;2023-03-14T00:34:46;5.90;;;5.70;;
14030;SDS011;7090;49.436;8.490;2023-03-14T00:37:12;5.87;;;5.67;;
14030;SDS011;7090;49.436;8.490;2023-03-14T00:39:37;5.73;;;5.53;;
14030;SDS011;7090;49.436;8.490;2023-03-14T00:42:03;6.20;;;6.00;;
14030;SDS011;7090;49.436;8.490;2023-03-14T00:44:29;5.80;;;5.60;;
14030;SDS011;7090;49.436;8.490;2023-03-14T00:46:54;6.20;;;6.00;;
14030;SDS011;7090;49.436;8.490;2023-03-14T00:49:20;5.50;;;5.30;;
14030;SDS011;7090;49.436;8.490;2023-03-14T00:51:45;6.03;;;5.73;;
14030;SDS011;7090;49.436;8.490;2023-03-14T00:54:11;5.93;;;5.73;;
14030;SDS011;7090;49.436;8.490;2023-03-14T00:56:37;6.43;;;6.13;;
14030;SDS011;7090;49.436;8.490;2023-03-14T00:59:02;6.50;;;6.10;;
14030;SDS011;7090;49.436;8.490;2023-03-14T01:01:28;6.60;;;6.30;;
14030;SDS011;7090;49.436;8.490;2023-03-14T01:03:54;5.83;;;5.63;;
14030;SDS011;7090;49.436;8.490;2023-03-14T01:06:24;5.80;;;5.60;;
14030;SDS011;7090;49.436;8.490;2023-03-14T01:08:52;5.50;;;5.30;;
14030;SDS011;7090;49.436;8.490;2023-03-14T01:11:22;5.90;;;5.70;;
14030;SDS011;7090;49.436;8.490;2023-03-14T01:13:50;6.40;;;6.00;;
14030;SDS011;7090;49.436;8.490;2023-03-14T01:16:17;5.50;;;5.30;;
14030;SDS011;7090;49.436;8.490;2023-03-14T01:18:44;6.67;;;6.27;;
14030;SDS011;7090;49.436;8.490;2023-03-14T01:21:15;5.90;;;5.60;;
14030;SDS011;7090;49.436;8.490;2023-03-14T01:23:43;6.07;;;5.77;;
14030;SDS011;7090;49.436;8.490;2023-03-14T01:26:10;5.90;;;5.70;;
14030;SDS011;7090;49.436;8.490;2023-03-14T01:28:38;6.40;;;5.93;;
14030;SDS011;7090;49.436;8.490;2023-03-14T01:31:07;5.77;;;5.57;;
14030;SDS011;7090;49.436;8.490;2023-03-14T01:33:34;6.00;;;5.80;;
14030;SDS011;7090;49.436;8.490;2023-03-14T01:36:00;6.37;;;6.07;;
14030;SDS011;7090;49.436;8.490;2023-03-14T01:38:33;6.27;;;6.03;;
14030;SDS011;7090;49.436;8.490;2023-03-14T01:41:00;7.10;;;6.10;;
14030;SDS011;7090;49.436;8.490;2023-03-14T01:43:27;6.70;;;6.50;;
14030;SDS011;7090;49.436;8.490;2023-03-14T01:48:42;6.53;;;6.23;;
14030;SDS011;7090;49.436;8.490;2023-03-14T01:51:16;6.87;;;6.57;;
14030;SDS011;7090;49.436;8.490;2023-03-14T01:53:55;6.40;;;6.20;;
14030;SDS011;7090;49.436;8.490;2023-03-14T01:56:27;6.10;;;5.80;;
14030;SDS011;7090;49.436;8.490;2023-03-14T01:58:53;6.30;;;5.90;;
14030;SDS011;7090;49.436;8.490;2023-03-14T02:01:20;5.87;;;5.67;;
14030;SDS011;7090;49.436;8.490;2023-03-14T02:03:54;7.20;;;6.30;;
14030;SDS011;7090;49.436;8.490;2023-03-14T02:06:23;6.37;;;5.83;;
14030;SDS011;7090;49.436;8.490;2023-03-14T02:08:53;6.70;;;6.30;;
14030;SDS011;7090;49.436;8.490;2023-03-14T02:11:20;6.60;;;6.20;;
14030;SDS011;7090;49.436;8.490;2023-03-14T02:13:46;7.10;;;6.60;;
14030;SDS011;7090;49.436;8.490;2023-03-14T02:16:13;7.07;;;6.60;;
14030;SDS011;7090;49.436;8.490;2023-03-14T02:18:39;6.43;;;6.03;;
14030;SDS011;7090;49.436;8.490;2023-03-14T02:21:11;6.57;;;6.23;;
14030;SDS011;7090;49.436;8.490;2023-03-14T02:26:34;6.80;;;6.50;;
14030;SDS011;7090;49.436;8.490;2023-03-14T02:29:05;7.53;;;6.93;;
14030;SDS011;7090;49.436;8.490;2023-03-14T02:31:31;7.30;;;6.73;;
14030;SDS011;7090;49.436;8.490;2023-03-14T02:33:58;7.47;;;7.07;;
14030;SDS011;7090;49.436;8.490;2023-03-14T02:36:25;7.50;;;7.10;;
14030;SDS011;7090;49.436;8.490;2023-03-14T02:41:26;6.90;;;6.50;;
14030;SDS011;7090;49.436;8.490;2023-03-14T02:43:51;7.20;;;6.80;;
14030;SDS011;7090;49.436;8.490;2023-03-14T02:46:18;7.17;;;6.77;;
14030;SDS011;7090;49.436;8.490;2023-03-14T02:48:53;7.23;;;6.80;;
14030;SDS011;7090;49.436;8.490;2023-03-14T02:51:25;6.70;;;6.50;;
14030;SDS011;7090;49.436;8.490;2023-03-14T02:53:52;6.77;;;6.47;;
14030;SDS011;7090;49.436;8.490;2023-03-14T02:56:18;7.50;;;7.10;;
14030;SDS011;7090;49.436;8.490;2023-03-14T02:58:43;6.67;;;6.40;;
14030;SDS011;7090;49.436;8.490;2023-03-14T03:01:09;7.30;;;6.87;;
14030;SDS011;7090;49.436;8.490;2023-03-14T03:03:34;7.00;;;6.60;;
14030;SDS011;7090;49.436;8.490;2023-03-14T03:06:00;6.83;;;6.60;;
14030;SDS011;7090;49.436;8.490;2023-03-14T03:08:26;7.30;;;6.90;;
14030;SDS011;7090;49.436;8.490;2023-03-14T03:10:53;7.17;;;6.83;;
14030;SDS011;7090;49.436;8.490;2023-03-14T03:13:19;7.10;;;6.70;;
14030;SDS011;7090;49.436;8.490;2023-03-14T03:15:45;7.57;;;7.07;;
14030;SDS011;7090;49.436;8.490;2023-03-14T03:18:11;6.93;;;6.63;;
14030;SDS011;7090;49.436;8.490;2023-03-14T03:20:37;6.37;;;6.17;;
14030;SDS011;7090;49.436;8.490;2023-03-14T03:23:02;6.70;;;6.40;;
14030;SDS011;7090;49.436;8.490;2023-03-14T03:25:28;6.90;;;6.63;;
14030;SDS011;7090;49.436;8.490;2023-03-14T03:27:54;6.77;;;6.47;;
14030;SDS011;7090;49.436;8.490;2023-03-14T03:30:20;7.10;;;6.70;;
14030;SDS011;7090;49.436;8.490;2023-03-14T03:32:45;6.70;;;6.40;;
14030;SDS011;7090;49.436;8.490;2023-03-14T03:35:12;6.70;;;6.40;;
14030;SDS011;7090;49.436;8.490;2023-03-14T03:37:37;6.93;;;6.30;;
14030;SDS011;7090;49.436;8.490;2023-03-14T03:40:03;6.30;;;6.10;;
14030;SDS011;7090;49.436;8.490;2023-03-14T03:42:31;6.73;;;6.33;;
14030;SDS011;7090;49.436;8.490;2023-03-14T03:44:57;6.53;;;6.30;;
14030;SDS011;7090;49.436;8.490;2023-03-14T03:47:23;7.00;;;6.60;;
14030;SDS011;7090;49.436;8.490;2023-03-14T03:49:48;7.53;;;6.63;;
14030;SDS011;7090;49.436;8.490;2023-03-14T03:52:14;7.00;;;6.70;;
14030;SDS011;7090;49.436;8.490;2023-03-14T03:54:39;7.13;;;6.70;;
14030;SDS011;7090;49.436;8.490;2023-03-14T03:57:05;7.67;;;7.20;;
14030;SDS011;7090;49.436;8.490;2023-03-14T03:59:31;6.87;;;6.47;;
14030;SDS011;7090;49.436;8.490;2023-03-14T04:01:56;7.30;;;6.93;;
14030;SDS011;7090;49.436;8.490;2023-03-14T04:04:22;6.83;;;6.53;;
14030;SDS011;7090;49.436;8.490;2023-03-14T04:06:48;7.10;;;6.70;;
14030;SDS011;7090;49.436;8.490;2023-03-14T04:09:13;7.23;;;6.70;;
14030;SDS011;7090;49.436;8.490;2023-03-14T04:11:39;6.80;;;6.50;;
14030;SDS011;7090;49.436;8.490;2023-03-14T04:14:04;6.90;;;6.40;;
14030;SDS011;7090;49.436;8.490;2023-03-14T04:16:31;6.93;;;6.47;;
14030;SDS011;7090;49.436;8.490;2023-03-14T04:18:57;6.30;;;6.00;;
14030;SDS011;7090;49.436;8.490;2023-03-14T04:21:22;6.70;;;6.20;;
14030;SDS011;7090;49.436;8.490;2023-03-14T04:23:49;7.20;;;6.50;;
14030;SDS011;7090;49.436;8.490;2023-03-14T04:26:15;6.43;;;6.20;;
14030;SDS011;7090;49.436;8.490;2023-03-14T04:28:40;6.70;;;6.40;;
14030;SDS011;7090;49.436;8.490;2023-03-14T04:31:07;6.70;;;6.40;;
14030;SDS011;7090;49.436;8.490;2023-03-14T04:33:37;6.33;;;6.03;;
14030;SDS011;7090;49.436;8.490;2023-03-14T04:36:04;6.67;;;6.20;;
14030;SDS011;7090;49.436;8.490;2023-03-14T04:38:31;6.20;;;6.00;;
14030;SDS011;7090;49.436;8.490;2023-03-14T04:40:56;6.50;;;6.20;;
14030;SDS011;7090;49.436;8.490;2023-03-14T04:43:22;7.00;;;6.60;;
14030;SDS011;7090;49.436;8.490;2023-03-14T04:45:48;7.60;;;7.00;;
14030;SDS011;7090;49.436;8.490;2023-03-14T04:48:13;6.50;;;6.30;;
14030;SDS011;7090;49.436;8.490;2023-03-14T04:50:39;7.50;;;7.10;;
14030;SDS011;7090;49.436;8.490;2023-03-14T04:53:05;7.17;;;6.87;;
14030;SDS011;7090;49.436;8.490;2023-03-14T04:55:31;7.60;;;7.00;;
14030;SDS011;7090;49.436;8.490;2023-03-14T04:57:58;6.70;;;6.40;;
14030;SDS011;7090;49.436;8.490;2023-03-14T05:00:24;6.47;;;6.20;;
14030;SDS011;7090;49.436;8.490;2023-03-14T05:02:50;7.00;;;6.60;;
14030;SDS011;7090;49.436;8.490;2023-03-14T05:05:15;7.33;;;6.80;;
14030;SDS011;7090;49.436;8.490;2023-03-14T05:07:41;7.90;;;7.20;;
14030;SDS011;7090;49.436;8.490;2023-03-14T05:10:07;7.60;;;7.20;;
14030;SDS011;7090;49.436;8.490;2023-03-14T05:12:33;6.90;;;6.60;;
14030;SDS011;7090;49.436;8.490;2023-03-14T05:14:59;7.00;;;6.70;;
14030;SDS011;7090;49.436;8.490;2023-03-14T05:17:24;7.60;;;7.30;;
14030;SDS011;7090;49.436;8.490;2023-03-14T05:19:50;8.00;;;7.40;;
14030;SDS011;7090;49.436;8.490;2023-03-14T05:22:15;8.10;;;7.50;;
14030;SDS011;7090;49.436;8.490;2023-03-14T05:24:41;7.53;;;7.10;;
14030;SDS011;7090;49.436;8.490;2023-03-14T05:27:07;7.70;;;7.30;;
14030;SDS011;7090;49.436;8.490;2023-03-14T05:29:32;7.60;;;7.20;;
14030;SDS011;7090;49.436;8.490;2023-03-14T05:31:58;7.63;;;7.30;;
14030;SDS011;7090;49.436;8.490;2023-03-14T05:34:23;7.60;;;7.30;;
14030;SDS011;7090;49.436;8.490;2023-03-14T05:36:49;7.73;;;7.43;;
14030;SDS011;7090;49.436;8.490;2023-03-14T05:39:14;7.43;;;7.13;;
14030;SDS011;7090;49.436;8.490;2023-03-14T05:41:40;7.83;;;7.23;;
14030;SDS011;7090;49.436;8.490;2023-03-14T05:44:05;7.50;;;7.20;;
14030;SDS011;7090;49.436;8.490;2023-03-14T05:46:31;7.40;;;7.10;;
14030;SDS011;7090;49.436;8.490;2023-03-14T05:48:57;7.23;;;6.93;;
14030;SDS011;7090;49.436;8.490;2023-03-14T05:51:23;7.60;;;7.23;;
14030;SDS011;7090;49.436;8.490;2023-03-14T05:53:49;7.60;;;7.10;;
14030;SDS011;7090;49.436;8.490;2023-03-14T05:56:15;7.70;;;7.00;;
14030;SDS011;7090;49.436;8.490;2023-03-14T05:58:40;7.50;;;6.90;;
14030;SDS011;7090;49.436;8.490;2023-03-14T06:01:06;6.60;;;6.37;;
14030;SDS011;7090;49.436;8.490;2023-03-14T06:03:32;7.40;;;6.90;;
14030;SDS011;7090;49.436;8.490;2023-03-14T06:05:59;6.83;;;6.63;;
14030;SDS011;7090;49.436;8.490;2023-03-14T06:08:24;7.10;;;6.80;;
14030;SDS011;7090;49.436;8.490;2023-03-14T06:10:50;7.20;;;6.90;;
14030;SDS011;7090;49.436;8.490;2023-03-14T06:13:17;6.63;;;6.33;;
14030;SDS011;7090;49.436;8.490;2023-03-14T06:15:42;7.03;;;6.53;;
14030;SDS011;7090;49.436;8.490;2023-03-14T06:18:08;6.30;;;6.10;;
14030;SDS011;7090;49.436;8.490;2023-03-14T06:20:38;6.60;;;6.30;;
14030;SDS011;7090;49.436;8.490;2023-03-14T06:23:04;7.00;;;6.70;;
14030;SDS011;7090;49.436;8.490;2023-03-14T06:25:31;6.80;;;6.50;;
14030;SDS011;7090;49.436;8.490;2023-03-14T06:27:57;6.80;;;6.50;;
14030;SDS011;7090;49.436;8.490;2023-03-14T06:30:22;7.20;;;6.70;;
14030;SDS011;7090;49.436;8.490;2023-03-14T06:32:48;6.80;;;6.50;;
14030;SDS011;7090;49.436;8.490;2023-03-14T06:35:14;6.90;;;6.60;;
14030;SDS011;7090;49.436;8.490;2023-03-14T06:37:39;6.87;;;6.57;;
14030;SDS011;7090;49.436;8.490;2023-03-14T06:40:05;6.70;;;6.40;;
14030;SDS011;7090;49.436;8.490;2023-03-14T06:42:32;7.07;;;6.77;;
14030;SDS011;7090;49.436;8.490;2023-03-14T06:44:58;7.30;;;6.90;;
14030;SDS011;7090;49.436;8.490;2023-03-14T06:47:23;6.90;;;6.57;;
14030;SDS011;7090;49.436;8.490;2023-03-14T06:49:49;7.20;;;6.80;;
14030;SDS011;7090;49.436;8.490;2023-03-14T06:52:14;7.53;;;6.87;;
14030;SDS011;7090;49.436;8.490;2023-03-14T06:54:40;7.20;;;6.70;;
14030;SDS011;7090;49.436;8.490;2023-03-14T06:57:05;6.90;;;6.60;;
14030;SDS011;7090;49.436;8.490;2023-03-14T06:59:31;8.40;;;7.70;;
14030;SDS011;7090;49.436;8.490;2023-03-14T07:01:56;7.70;;;7.40;;
14030;SDS011;7090;49.436;8.490;2023-03-14T07:04:22;7.13;;;6.90;;
14030;SDS011;7090;49.436;8.490;2023-03-14T07:06:48;7.80;;;7.20;;
14030;SDS011;7090;49.436;8.490;2023-03-14T07:09:14;7.47;;;6.97;;
14030;SDS011;7090;49.436;8.490;2023-03-14T07:11:42;7.40;;;7.10;;
14030;SDS011;7090;49.436;8.490;2023-03-14T07:14:07;7.40;;;7.10;;
14030;SDS011;7090;49.436;8.490;2023-03-14T07:16:33;7.70;;;7.20;;
14030;SDS011;7090;49.436;8.490;2023-03-14T07:18:59;7.72;;;7.32;;
14030;SDS011;7090;49.436;8.490;2023-03-14T07:21:26;7.87;;;7.37;;
14030;SDS011;7090;49.436;8.490;2023-03-14T07:23:51;7.90;;;7.30;;
14030;SDS011;7090;49.436;8.490;2023-03-14T07:26:17;8.13;;;7.53;;
14030;SDS011;7090;49.436;8.490;2023-03-14T07:28:43;7.50;;;7.20;;
14030;SDS011;7090;49.436;8.490;2023-03-14T07:31:08;7.20;;;6.90;;
14030;SDS011;7090;49.436;8.490;2023-03-14T07:33:34;7.50;;;7.10;;
14030;SDS011;7090;49.436;8.490;2023-03-14T07:36:00;7.60;;;7.10;;
14030;SDS011;7090;49.436;8.490;2023-03-14T07:38:25;7.50;;;7.20;;
14030;SDS011;7090;49.436;8.490;2023-03-14T07:40:57;7.97;;;7.57;;
14030;SDS011;7090;49.436;8.490;2023-03-14T07:43:23;8.13;;;7.63;;
14030;SDS011;7090;49.436;8.490;2023-03-14T07:45:49;8.43;;;7.93;;
14030;SDS011;7090;49.436;8.490;2023-03-14T07:48:15;8.40;;;7.80;;
14030;SDS011;7090;49.436;8.490;2023-03-14T07:50:40;7.30;;;7.00;;
14030;SDS011;7090;49.436;8.490;2023-03-14T07:53:06;7.10;;;6.73;;
14030;SDS011;7090;49.436;8.490;2023-03-14T07:55:31;7.67;;;7.20;;
14030;SDS011;7090;49.436;8.490;2023-03-14T07:57:57;7.57;;;7.20;;
14030;SDS011;7090;49.436;8.490;2023-03-14T08:00:22;7.00;;;6.60;;
14030;SDS011;7090;49.436;8.490;2023-03-14T08:02:48;7.77;;;7.17;;
14030;SDS011;7090;49.436;8.490;2023-03-14T08:05:13;7.60;;;7.20;;
14030;SDS011;7090;49.436;8.490;2023-03-14T08:07:39;7.50;;;7.00;;
14030;SDS011;7090;49.436;8.490;2023-03-14T08:10:05;7.80;;;7.20;;
14030;SDS011;7090;49.436;8.490;2023-03-14T08:12:31;7.80;;;7.43;;
14030;SDS011;7090;49.436;8.490;2023-03-14T08:14:56;8.00;;;7.60;;
14030;SDS011;7090;49.436;8.490;2023-03-14T08:17:24;7.80;;;7.30;;
14030;SDS011;7090;49.436;8.490;2023-03-14T08:19:50;7.30;;;6.90;;
14030;SDS011;7090;49.436;8.490;2023-03-14T08:22:15;7.10;;;6.60;;
14030;SDS011;7090;49.436;8.490;2023-03-14T08:24:41;6.63;;;6.33;;
14030;SDS011;7090;49.436;8.490;2023-03-14T08:27:06;6.40;;;6.10;;
14030;SDS011;7090;49.436;8.490;2023-03-14T08:29:32;16.00;;;6.60;;
14030;SDS011;7090;49.436;8.490;2023-03-14T08:31:58;6.77;;;6.33;;
14030;SDS011;7090;49.436;8.490;2023-03-14T08:34:23;7.00;;;6.60;;
14030;SDS011;7090;49.436;8.490;2023-03-14T08:36:49;6.70;;;6.30;;
14030;SDS011;7090;49.436;8.490;2023-03-14T08:39:15;6.50;;;6.30;;
14030;SDS011;7090;49.436;8.490;2023-03-14T08:41:40;6.60;;;6.30;;
14030;SDS011;7090;49.436;8.490;2023-03-14T08:44:08;6.53;;;6.23;;
14030;SDS011;7090;49.436;8.490;2023-03-14T08:46:34;6.60;;;6.30;;
14030;SDS011;7090;49.436;8.490;2023-03-14T08:49:00;6.40;;;6.20;;
14030;SDS011;7090;49.436;8.490;2023-03-14T08:51:26;6.50;;;6.20;;
14030;SDS011;7090;49.436;8.490;2023-03-14T08:53:52;6.88;;;6.57;;
14030;SDS011;7090;49.436;8.490;2023-03-14T08:56:18;6.00;;;5.80;;
14030;SDS011;7090;49.436;8.490;2023-03-14T08:58:43;6.40;;;6.10;;
14030;SDS011;7090;49.436;8.490;2023-03-14T09:01:09;6.10;;;5.80;;
14030;SDS011;7090;49.436;8.490;2023-03-14T09:03:36;6.23;;;5.87;;
14030;SDS011;7090;49.436;8.490;2023-03-14T09:06:08;6.23;;;6.03;;
14030;SDS011;7090;49.436;8.490;2023-03-14T09:08:34;6.40;;;6.10;;
14030;SDS011;7090;49.436;8.490;2023-03-14T09:11:00;6.53;;;6.23;;
14030;SDS011;7090;49.436;8.490;2023-03-14T09:13:26;6.60;;;6.30;;
14030;SDS011;7090;49.436;8.490;2023-03-14T09:15:52;6.33;;;6.13;;
14030;SDS011;7090;49.436;8.490;2023-03-14T09:18:19;6.90;;;6.60;;
14030;SDS011;7090;49.436;8.490;2023-03-14T09:20:44;7.20;;;6.90;;
14030;SDS011;7090;49.436;8.490;2023-03-14T09:23:10;6.70;;;6.40;;
14030;SDS011;7090;49.436;8.490;2023-03-14T09:25:36;7.10;;;6.80;;
14030;SDS011;7090;49.436;8.490;2023-03-14T09:28:01;6.80;;;6.50;;
14030;SDS011;7090;49.436;8.490;2023-03-14T09:30:27;6.60;;;6.30;;
14030;SDS011;7090;49.436;8.490;2023-03-14T09:32:52;6.60;;;6.30;;
14030;SDS011;7090;49.436;8.490;2023-03-14T09:35:18;6.43;;;6.17;;
14030;SDS011;7090;49.436;8.490;2023-03-14T09:37:44;6.37;;;6.07;;
14030;SDS011;7090;49.436;8.490;2023-03-14T09:40:11;6.30;;;6.10;;
14030;SDS011;7090;49.436;8.490;2023-03-14T09:42:39;6.37;;;6.17;;
14030;SDS011;7090;49.436;8.490;2023-03-14T09:45:06;6.07;;;5.87;;
14030;SDS011;7090;49.436;8.490;2023-03-14T09:47:37;6.60;;;6.00;;
14030;SDS011;7090;49.436;8.490;2023-03-14T09:50:05;6.23;;;6.03;;
14030;SDS011;7090;49.436;8.490;2023-03-14T09:52:36;6.30;;;6.07;;
14030;SDS011;7090;49.436;8.490;2023-03-14T09:55:05;6.90;;;6.50;;
14030;SDS011;7090;49.436;8.490;2023-03-14T09:57:36;6.10;;;5.90;;
14030;SDS011;7090;49.436;8.490;2023-03-14T10:00:05;6.67;;;6.40;;
14030;SDS011;7090;49.436;8.490;2023-03-14T10:02:39;6.87;;;6.47;;
14030;SDS011;7090;49.436;8.490;2023-03-14T10:05:16;6.20;;;6.00;;
14030;SDS011;7090;49.436;8.490;2023-03-14T10:07:43;6.70;;;6.30;;
14030;SDS011;7090;49.436;8.490;2023-03-14T10:10:10;6.80;;;6.50;;
14030;SDS011;7090;49.436;8.490;2023-03-14T10:12:40;6.33;;;6.13;;
14030;SDS011;7090;49.436;8.490;2023-03-14T10:15:08;6.10;;;5.90;;
14030;SDS011;7090;49.436;8.490;2023-03-14T10:17:39;6.32;;;6.03;;
14030;SDS011;7090;49.436;8.490;2023-03-14T10:20:06;6.37;;;6.07;;
14030;SDS011;7090;49.436;8.490;2023-03-14T10:22:52;6.90;;;6.60;;
14030;SDS011;7090;49.436;8.490;2023-03-14T10:25:28;6.90;;;6.60;;
14030;SDS011;7090;49.436;8.490;2023-03-14T10:27:56;6.83;;;6.53;;
14030;SDS011;7090;49.436;8.490;2023-03-14T10:33:12;6.60;;;6.30;;
14030;SDS011;7090;49.436;8.490;2023-03-14T10:36:00;6.50;;;6.20;;
14030;SDS011;7090;49.436;8.490;2023-03-14T10:41:35;6.40;;;6.20;;
14030;SDS011;7090;49.436;8.490;2023-03-14T10:44:01;6.40;;;6.10;;
14030;SDS011;7090;49.436;8.490;2023-03-14T10:46:29;6.60;;;6.30;;
14030;SDS011;7090;49.436;8.490;2023-03-14T10:48:57;6.50;;;6.23;;
14030;SDS011;7090;49.436;8.490;2023-03-14T10:51:27;6.60;;;6.30;;
14030;SDS011;7090;49.436;8.490;2023-03-14T10:53:58;6.00;;;5.80;;
14030;SDS011;7090;49.436;8.490;2023-03-14T10:56:58;6.10;;;5.90;;
14030;SDS011;7090;49.436;8.490;2023-03-14T10:59:26;6.10;;;5.80;;
14030;SDS011;7090;49.436;8.490;2023-03-14T11:18:12;5.30;;;5.10;;
14030;SDS011;7090;49.436;8.490;2023-03-14T11:23:08;5.73;;;5.53;;
14030;SDS011;7090;49.436;8.490;2023-03-14T11:26:19;5.87;;;5.67;;
14030;SDS011;7090;49.436;8.490;2023-03-14T11:28:40;5.60;;;5.30;;
14030;SDS011;7090;49.436;8.490;2023-03-14T11:31:16;5.50;;;5.20;;
14030;SDS011;7090;49.436;8.490;2023-03-14T11:36:38;5.60;;;5.40;;
14030;SDS011;7090;49.436;8.490;2023-03-14T11:39:16;5.83;;;5.53;;
14030;SDS011;7090;49.436;8.490;2023-03-14T11:41:44;6.10;;;5.70;;
14030;SDS011;7090;49.436;8.490;2023-03-14T11:44:19;6.37;;;5.97;;
14030;SDS011;7090;49.436;8.490;2023-03-14T11:46:52;7.40;;;7.00;;
14030;SDS011;7090;49.436;8.490;2023-03-14T11:51:58;6.90;;;6.60;;
14030;SDS011;7090;49.436;8.490;2023-03-14T11:54:33;6.77;;;6.50;;
14030;SDS011;7090;49.436;8.490;2023-03-14T11:57:15;7.07;;;6.77;;
14030;SDS011;7090;49.436;8.490;2023-03-14T12:00:43;7.37;;;7.07;;
14030;SDS011;7090;49.436;8.490;2023-03-14T12:10:45;6.77;;;6.57;;
14030;SDS011;7090;49.436;8.490;2023-03-14T12:13:16;6.30;;;6.10;;
14030;SDS011;7090;49.436;8.490;2023-03-14T12:15:50;6.77;;;6.50;;
14030;SDS011;7090;49.436;8.490;2023-03-14T12:18:21;6.60;;;6.30;;
14030;SDS011;7090;49.436;8.490;2023-03-14T12:20:54;6.37;;;6.17;;
14030;SDS011;7090;49.436;8.490;2023-03-14T12:23:23;6.80;;;6.60;;
14030;SDS011;7090;49.436;8.490;2023-03-14T12:34:28;6.83;;;6.63;;
14030;SDS011;7090;49.436;8.490;2023-03-14T12:42:07;7.13;;;6.83;;
14030;SDS011;7090;49.436;8.490;2023-03-14T12:49:44;8.30;;;7.90;;
14030;SDS011;7090;49.436;8.490;2023-03-14T12:52:33;9.90;;;9.50;;
14030;SDS011;7090;49.436;8.490;2023-03-14T12:57:42;10.50;;;10.00;;
14030;SDS011;7090;49.436;8.490;2023-03-14T13:00:22;10.10;;;9.50;;
14030;SDS011;7090;49.436;8.490;2023-03-14T13:02:59;9.10;;;8.70;;
14030;SDS011;7090;49.436;8.490;2023-03-14T13:05:37;8.30;;;7.90;;
14030;SDS011;7090;49.436;8.490;2023-03-14T13:08:45;8.17;;;7.87;;
14030;SDS011;7090;49.436;8.490;2023-03-14T13:11:14;7.90;;;7.50;;
14030;SDS011;7090;49.436;8.490;2023-03-14T13:13:55;7.10;;;6.80;;
14030;SDS011;7090;49.436;8.490;2023-03-14T13:16:23;7.50;;;6.97;;
14030;SDS011;7090;49.436;8.490;2023-03-14T13:18:59;6.87;;;6.57;;
14030;SDS011;7090;49.436;8.490;2023-03-14T13:21:29;7.00;;;6.70;;
14030;SDS011;7090;49.436;8.490;2023-03-14T13:24:01;6.37;;;6.17;;
14030;SDS011;7090;49.436;8.490;2023-03-14T13:26:39;6.77;;;6.47;;
14030;SDS011;7090;49.436;8.490;2023-03-14T13:29:19;6.93;;;6.63;;
14030;SDS011;7090;49.436;8.490;2023-03-14T13:31:47;6.57;;;6.37;;
14030;SDS011;7090;49.436;8.490;2023-03-14T13:34:14;6.73;;;6.43;;
14030;SDS011;7090;49.436;8.490;2023-03-14T13:36:40;6.90;;;6.40;;
14030;SDS011;7090;49.436;8.490;2023-03-14T13:42:04;6.50;;;6.20;;
14030;SDS011;7090;49.436;8.490;2023-03-14T13:44:31;6.20;;;6.00;;
14030;SDS011;7090;49.436;8.490;2023-03-14T13:47:00;6.10;;;5.90;;
14030;SDS011;7090;49.436;8.490;2023-03-14T13:49:27;6.50;;;6.10;;
14030;SDS011;7090;49.436;8.490;2023-03-14T13:51:57;6.53;;;6.23;;
14030;SDS011;7090;49.436;8.490;2023-03-14T13:54:24;7.20;;;6.70;;
14030;SDS011;7090;49.436;8.490;2023-03-14T13:57:01;7.20;;;6.90;;
14030;SDS011;7090;49.436;8.490;2023-03-14T13:59:32;7.63;;;7.33;;
14030;SDS011;7090;49.436;8.490;2023-03-14T14:02:00;8.27;;;7.77;;
14030;SDS011;7090;49.436;8.490;2023-03-14T14:04:30;7.90;;;7.40;;
14030;SDS011;7090;49.436;8.490;2023-03-14T14:06:58;7.50;;;7.20;;
14030;SDS011;7090;49.436;8.490;2023-03-14T14:09:26;8.63;;;8.23;;
14030;SDS011;7090;49.436;8.490;2023-03-14T14:11:58;8.03;;;7.60;;
14030;SDS011;7090;49.436;8.490;2023-03-14T14:14:33;8.80;;;8.40;;
14030;SDS011;7090;49.436;8.490;2023-03-14T14:17:26;9.00;;;8.60;;
14030;SDS011;7090;49.436;8.490;2023-03-14T14:19:57;8.90;;;8.30;;
14030;SDS011;7090;49.436;8.490;2023-03-14T14:22:25;8.40;;;8.10;;
14030;SDS011;7090;49.436;8.490;2023-03-14T14:24:51;8.93;;;8.53;;
14030;SDS011;7090;49.436;8.490;2023-03-14T14:27:18;8.30;;;8.00;;
14030;SDS011;7090;49.436;8.490;2023-03-14T14:30:24;8.80;;;8.40;;
14030;SDS011;7090;49.436;8.490;2023-03-14T14:32:42;9.13;;;8.73;;
14030;SDS011;7090;49.436;8.490;2023-03-14T14:35:10;8.93;;;8.53;;
14030;SDS011;7090;49.436;8.490;2023-03-14T14:37:46;8.40;;;8.00;;
14030;SDS011;7090;49.436;8.490;2023-03-14T14:40:18;8.93;;;8.43;;
14030;SDS011;7090;49.436;8.490;2023-03-14T14:42:46;8.00;;;7.70;;
14030;SDS011;7090;49.436;8.490;2023-03-14T14:45:13;8.70;;;8.40;;
14030;SDS011;7090;49.436;8.490;2023-03-14T14:47:48;8.60;;;8.20;;
14030;SDS011;7090;49.436;8.490;2023-03-14T14:51:11;8.80;;;8.40;;
14030;SDS011;7090;49.436;8.490;2023-03-14T14:55:57;8.90;;;8.50;;
14030;SDS011;7090;49.436;8.490;2023-03-14T14:58:29;9.20;;;8.70;;
14030;SDS011;7090;49.436;8.490;2023-03-14T15:01:04;9.27;;;8.77;;
14030;SDS011;7090;49.436;8.490;2023-03-14T15:03:33;9.00;;;8.50;;
14030;SDS011;7090;49.436;8.490;2023-03-14T15:06:00;9.23;;;8.83;;
14030;SDS011;7090;49.436;8.490;2023-03-14T15:08:27;8.80;;;8.40;;
14030;SDS011;7090;49.436;8.490;2023-03-14T15:10:54;9.10;;;8.70;;
14030;SDS011;7090;49.436;8.490;2023-03-14T15:13:20;9.20;;;8.60;;
14030;SDS011;7090;49.436;8.490;2023-03-14T15:15:46;8.90;;;8.50;;
14030;SDS011;7090;49.436;8.490;2023-03-14T15:18:16;9.10;;;8.70;;
14030;SDS011;7090;49.436;8.490;2023-03-14T15:20:43;8.40;;;8.10;;
14030;SDS011;7090;49.436;8.490;2023-03-14T15:23:11;8.30;;;8.00;;
14030;SDS011;7090;49.436;8.490;2023-03-14T15:25:37;8.82;;;8.43;;
14030;SDS011;7090;49.436;8.490;2023-03-14T15:31:08;8.90;;;8.40;;
14030;SDS011;7090;49.436;8.490;2023-03-14T15:33:35;8.30;;;8.00;;
14030;SDS011;7090;49.436;8.490;2023-03-14T15:36:01;8.47;;;8.10;;
14030;SDS011;7090;49.436;8.490;2023-03-14T15:38:28;8.70;;;8.40;;
14030;SDS011;7090;49.436;8.490;2023-03-14T15:40:53;8.90;;;8.50;;
14030;SDS011;7090;49.436;8.490;2023-03-14T15:43:19;8.57;;;8.27;;
14030;SDS011;7090;49.436;8.490;2023-03-14T15:45:45;8.80;;;8.40;;
14030;SDS011;7090;49.436;8.490;2023-03-14T15:48:15;9.23;;;8.57;;
14030;SDS011;7090;49.436;8.490;2023-03-14T15:50:45;8.77;;;8.37;;
14030;SDS011;7090;49.436;8.490;2023-03-14T15:53:11;8.70;;;8.30;;
14030;SDS011;7090;49.436;8.490;2023-03-14T15:55:37;8.50;;;8.20;;
14030;SDS011;7090;49.436;8.490;2023-03-14T15:58:03;8.80;;;8.50;;
14030;SDS011;7090;49.436;8.490;2023-03-14T16:00:29;9.50;;;9.10;;
14030;SDS011;7090;49.436;8.490;2023-03-14T16:02:55;9.30;;;8.90;;
14030;SDS011;7090;49.436;8.490;2023-03-14T16:05:20;9.40;;;8.90;;
14030;SDS011;7090;49.436;8.490;2023-03-14T16:07:46;9.40;;;9.00;;
14030;SDS011;7090;49.436;8.490;2023-03-14T16:10:12;9.30;;;8.90;;
14030;SDS011;7090;49.436;8.490;2023-03-14T16:12:39;9.40;;;9.00;;
14030;SDS011;7090;49.436;8.490;2023-03-14T16:15:05;10.00;;;9.50;;
14030;SDS011;7090;49.436;8.490;2023-03-14T16:17:31;9.30;;;8.90;;
14030;SDS011;7090;49.436;8.490;2023-03-14T16:19:57;8.37;;;8.07;;
14030;SDS011;7090;49.436;8.490;2023-03-14T16:22:24;9.30;;;8.80;;